Time;durP1;ratioP1;P1;durP2;ratioP2;P2;SDS_P1;SDS_P2;PMS_P1;PMS_P2;Temp;Humidity;BMP_temperature;BMP_pressure;BME280_temperature;BME280_humidity;BME280_pressure;Samples;Min_cycle;Max_cycle;Signal;HPM_P1;HPM_P2
2023/09/22 00:02:20;;;;;;;8.80;4.30;;;;;;;18.46;100.00;63906.06;5027501;28;20245;-75
2023/09/22 00:04:46;;;;;;;5.63;4.40;;;;;;;18.43;100.00;63903.47;5019770;28;20232;-76
2023/09/22 00:07:14;;;;;;;9.20;4.63;;;;;;;18.51;100.00;63916.97;5025971;28;20444;-75
2023/09/22 00:09:41;;;;;;;6.47;4.28;;;;;;;18.52;100.00;63909.75;5026290;28;20246;-75
2023/09/22 00:12:08;;;;;;;8.52;4.57;;;;;;;18.54;100.00;63919.56;5014484;28;20500;-77
2023/09/22 00:14:37;;;;;;;6.88;3.85;;;;;;;18.55;100.00;63918.53;5005910;28;20222;-76
2023/09/22 00:17:05;;;;;;;9.25;4.20;;;;;;;18.60;100.00;63923.78;5013242;28;20206;-75
2023/09/22 00:19:31;;;;;;;4.40;4.00;;;;;;;18.64;100.00;63927.41;5018001;28;20278;-75
2023/09/22 00:21:58;;;;;;;5.13;3.90;;;;;;;18.70;100.00;63929.03;5013901;28;20218;-77
2023/09/22 00:24:25;;;;;;;6.30;3.13;;;;;;;18.79;100.00;63946.16;5025960;28;20226;-76
2023/09/22 00:26:52;;;;;;;3.90;3.67;;;;;;;18.75;100.00;63936.28;5024726;28;20241;-76
2023/09/22 00:29:19;;;;;;;8.48;4.13;;;;;;;18.82;100.00;63951.84;5012767;28;20219;-75
2023/09/22 00:31:47;;;;;;;13.32;6.93;;;;;;;18.91;100.00;63952.97;5019706;28;20273;-75
2023/09/22 00:34:15;;;;;;;4.95;3.55;;;;;;;19.00;100.00;63967.53;5018128;28;20224;-76
2023/09/22 00:36:42;;;;;;;7.90;4.55;;;;;;;18.97;100.00;63962.31;5025842;28;20202;-75
2023/09/22 00:39:09;;;;;;;5.70;4.22;;;;;;;18.91;100.00;63955.56;5023264;28;20217;-77
2023/09/22 00:41:36;;;;;;;10.57;4.30;;;;;;;18.84;100.00;63950.84;5022573;28;20214;-76
2023/09/22 00:44:03;;;;;;;12.68;3.63;;;;;;;18.83;100.00;63949.78;5026690;28;20523;-77
2023/09/22 00:46:31;;;;;;;4.70;3.97;;;;;;;18.87;100.00;63951.38;5024665;28;20236;-75
2023/09/22 00:49:00;;;;;;;5.43;3.75;;;;;;;18.90;100.00;63952.44;5017252;28;20257;-76
2023/09/22 00:51:28;;;;;;;5.07;3.65;;;;;;;18.87;100.00;63951.38;5023487;28;20202;-75
2023/09/22 00:53:55;;;;;;;8.25;3.97;;;;;;;18.86;100.00;63952.94;5025934;28;20233;-75
2023/09/22 00:56:23;;;;;;;11.15;3.10;;;;;;;18.88;100.00;63958.09;5017852;28;20203;-75
2023/09/22 00:58:51;;;;;;;2.83;2.42;;;;;;;18.96;100.00;63958.19;5014886;28;20237;-75
2023/09/22 01:01:20;;;;;;;6.07;2.45;;;;;;;18.81;100.00;63943.06;5023312;28;20202;-76
2023/09/22 01:03:51;;;;;;;6.13;2.28;;;;;;;18.61;100.00;63929.97;5024968;28;20206;-77
2023/09/22 01:06:20;;;;;;;9.98;2.72;;;;;;;18.48;100.00;63906.09;5033365;28;20232;-76
2023/09/22 01:08:47;;;;;;;4.75;2.25;;;;;;;18.34;100.00;63897.16;5031624;28;20273;-76
2023/09/22 01:11:14;;;;;;;6.03;2.97;;;;;;;17.95;100.00;63861.69;5019098;28;20448;-77
2023/09/22 01:13:42;;;;;;;7.63;2.70;;;;;;;17.87;100.00;63848.22;5024300;28;20239;-77
2023/09/22 01:16:09;;;;;;;3.33;2.55;;;;;;;17.88;100.00;63848.72;5012609;28;20206;-76
2023/09/22 01:18:37;;;;;;;6.97;2.45;;;;;;;17.77;100.00;63834.69;5019855;28;20253;-76
2023/09/22 01:21:04;;;;;;;2.30;2.13;;;;;;;17.72;100.00;63832.59;5024988;28;20385;-77
2023/09/22 01:23:32;;;;;;;6.95;2.10;;;;;;;17.60;100.00;63817.00;5019310;28;20273;-77
2023/09/22 01:25:59;;;;;;;5.28;2.80;;;;;;;17.47;100.00;63806.03;5007965;28;20289;-77
2023/09/22 01:28:27;;;;;;;3.58;2.85;;;;;;;17.38;100.00;63797.16;5020736;28;20202;-77
2023/09/22 01:30:53;;;;;;;8.95;3.33;;;;;;;17.37;100.00;63790.97;5024061;28;20230;-77
2023/09/22 01:33:21;;;;;;;5.63;3.28;;;;;;;17.27;100.00;63783.13;5011408;28;20202;-78
2023/09/22 01:35:48;;;;;;;9.80;3.33;;;;;;;17.28;100.00;63787.28;5006930;28;20230;-76
2023/09/22 01:38:19;;;;;;;7.35;3.20;;;;;;;17.25;100.00;63783.63;5023555;28;20209;-76
2023/09/22 01:40:47;;;;;;;6.07;2.97;;;;;;;17.19;100.00;63780.47;5023919;28;20569;-76
2023/09/22 01:43:16;;;;;;;7.25;3.55;;;;;;;17.19;100.00;63777.38;5022914;28;20308;-77
2023/09/22 01:45:44;;;;;;;3.90;2.70;;;;;;;17.15;100.00;63773.22;5040261;28;20233;-76
2023/09/22 01:48:11;;;;;;;3.78;2.63;;;;;;;17.12;100.00;63770.59;5040882;28;20251;-77
2023/09/22 01:50:40;;;;;;;3.30;2.65;;;;;;;17.10;100.00;63771.09;5024567;28;20218;-76
2023/09/22 01:53:08;;;;;;;4.00;2.88;;;;;;;17.07;100.00;63767.44;5025909;28;20205;-75
2023/09/22 01:55:36;;;;;;;7.53;3.20;;;;;;;17.04;100.00;63759.72;5037745;28;20231;-76
2023/09/22 01:58:07;;;;;;;7.13;2.63;;;;;;;17.04;100.00;63759.72;5023862;28;20266;-76
2023/09/22 02:00:34;;;;;;;4.45;2.63;;;;;;;16.98;100.00;63756.03;5020550;28;20229;-76
2023/09/22 02:03:02;;;;;;;4.95;2.90;;;;;;;16.92;100.00;63751.84;5023723;28;20202;-77
2023/09/22 02:05:29;;;;;;;7.13;2.85;;;;;;;16.83;100.00;63737.84;5019417;28;20234;-75
2023/09/22 02:07:57;;;;;;;5.50;2.60;;;;;;;16.84;100.00;63738.88;5024573;28;20240;-75
2023/09/22 02:10:24;;;;;;;3.35;3.00;;;;;;;16.79;100.00;63738.81;5020636;28;20534;-76
2023/09/22 02:12:51;;;;;;;5.70;2.80;;;;;;;16.75;100.00;63734.16;5023015;28;20190;-76
2023/09/22 02:15:19;;;;;;;5.97;2.83;;;;;;;16.66;100.00;63720.16;5021147;28;20245;-75
2023/09/22 02:17:47;;;;;;;5.78;3.00;;;;;;;16.57;100.00;63708.22;5011838;28;20266;-76
2023/09/22 02:20:18;;;;;;;6.25;3.20;;;;;;;16.57;100.00;63710.28;5021035;28;20222;-76
2023/09/22 02:22:47;;;;;;;4.90;2.67;;;;;;;16.67;100.00;63718.13;5022441;28;20222;-75
2023/09/22 02:25:15;;;;;;;7.38;3.05;;;;;;;16.76;100.00;63733.13;5021696;28;20533;-75
2023/09/22 02:27:42;;;;;;;12.00;3.45;;;;;;;16.69;100.00;63725.84;5018883;28;20569;-75
2023/09/22 02:30:10;;;;;;;7.68;2.97;;;;;;;16.65;100.00;63721.19;5025013;28;20233;-75
2023/09/22 02:32:40;;;;;;;6.63;3.10;;;;;;;16.56;100.00;63709.25;5018263;28;20202;-74
2023/09/22 02:35:08;;;;;;;10.23;3.25;;;;;;;16.54;100.00;63710.25;5019187;28;20226;-78
2023/09/22 02:37:36;;;;;;;6.25;3.20;;;;;;;16.53;100.00;63706.13;5023269;28;20222;-75
2023/09/22 02:40:05;;;;;;;4.43;3.20;;;;;;;16.52;100.00;63705.59;5024640;28;20230;-76
2023/09/22 02:42:32;;;;;;;6.43;2.60;;;;;;;16.57;100.00;63715.41;5026677;28;20262;-75
2023/09/22 02:44:59;;;;;;;6.75;3.00;;;;;;;16.47;100.00;63707.59;5019330;28;20219;-74
2023/09/22 02:47:28;;;;;;;8.63;2.55;;;;;;;16.36;100.00;63691.00;5022941;28;20234;-75
2023/09/22 02:49:56;;;;;;;8.75;3.40;;;;;;;16.28;100.00;63683.19;5026946;28;20288;-74
2023/09/22 02:52:24;;;;;;;5.13;3.30;;;;;;;16.26;100.00;63678.00;5018820;28;20203;-75
2023/09/22 02:54:54;;;;;;;4.93;4.10;;;;;;;16.22;100.00;63679.53;5025190;28;20245;-74
2023/09/22 02:57:21;;;;;;;7.30;3.45;;;;;;;16.20;100.00;63672.31;5028350;28;20217;-74
2023/09/22 02:59:53;;;;;;;7.80;4.32;;;;;;;16.17;100.00;63674.31;5040916;28;20267;-75
2023/09/22 03:02:20;;;;;;;5.28;3.40;;;;;;;16.18;100.00;63670.22;5020647;28;20265;-75
2023/09/22 03:04:48;;;;;;;6.18;4.15;;;;;;;16.16;100.00;63673.78;5016364;28;20226;-76
2023/09/22 03:07:16;;;;;;;6.00;3.22;;;;;;;16.18;100.00;63670.22;5024779;28;20305;-76
2023/09/22 03:09:43;;;;;;;7.43;4.13;;;;;;;16.16;100.00;63666.09;5026402;28;20301;-75
2023/09/22 03:12:10;;;;;;;5.10;3.00;;;;;;;16.14;100.00;63669.13;5021578;28;20220;-75
2023/09/22 03:14:37;;;;;;;5.43;3.00;;;;;;;16.13;100.00;63665.00;5025005;28;20308;-75
2023/09/22 03:17:06;;;;;;;7.25;3.47;;;;;;;16.07;100.00;63659.28;5024568;28;20210;-76
2023/09/22 03:19:33;;;;;;;7.13;3.38;;;;;;;16.05;100.00;63656.69;5023417;28;20221;-75
2023/09/22 03:22:00;;;;;;;9.23;3.70;;;;;;;16.02;100.00;63658.69;5012310;28;20486;-75
2023/09/22 03:24:29;;;;;;;6.85;4.10;;;;;;;16.04;100.00;63655.66;5026568;28;20249;-75
2023/09/22 03:26:56;;;;;;;9.63;3.97;;;;;;;16.02;100.00;63658.69;5020097;28;20238;-75
2023/09/22 03:29:23;;;;;;;8.63;3.47;;;;;;;16.03;100.00;63657.19;5025603;28;20234;-76
2023/09/22 03:31:50;;;;;;;6.95;3.63;;;;;;;16.10;100.00;63664.47;5022591;28;20209;-75
2023/09/22 03:34:17;;;;;;;5.78;3.50;;;;;;;16.09;100.00;63658.81;5027292;28;20249;-76
2023/09/22 03:36:44;;;;;;;6.43;4.07;;;;;;;16.07;100.00;63664.44;5026416;28;20213;-74
2023/09/22 03:39:12;;;;;;;9.82;4.00;;;;;;;15.98;100.00;63649.41;5020179;28;20235;-76
2023/09/22 03:41:42;;;;;;;7.20;4.70;;;;;;;16.01;100.00;63658.19;5022771;28;20212;-75
2023/09/22 03:44:09;;;;;;;9.32;4.35;;;;;;;15.99;100.00;63648.41;5036961;28;20357;-74
2023/09/22 03:46:36;;;;;;;5.40;3.53;;;;;;;15.97;100.00;63645.81;5026306;28;20198;-75
2023/09/22 03:49:05;;;;;;;8.10;3.88;;;;;;;15.97;100.00;63650.94;5013411;28;20223;-75
2023/09/22 03:51:32;;;;;;;5.03;3.30;;;;;;;15.99;100.00;63653.03;5025908;28;20202;-74
2023/09/22 03:53:59;;;;;;;8.32;4.70;;;;;;;16.02;100.00;63659.22;5016056;28;20227;-74
2023/09/22 03:56:26;;;;;;;5.82;3.55;;;;;;;16.01;100.00;63657.69;5025071;28;20272;-74
2023/09/22 03:58:54;;;;;;;4.40;4.00;;;;;;;16.06;100.00;63657.72;5013808;28;20249;-75
2023/09/22 04:01:21;;;;;;;10.48;3.92;;;;;;;16.00;100.00;63646.34;5026937;28;20202;-76
2023/09/22 04:03:48;;;;;;;3.40;3.10;;;;;;;16.01;100.00;63653.03;5022528;28;20366;-75
2023/09/22 04:06:15;;;;;;;8.80;3.53;;;;;;;16.02;100.00;63656.13;5022407;28;20202;-76
2023/09/22 04:08:42;;;;;;;9.88;2.70;;;;;;;15.97;100.00;63643.75;5025396;28;20542;-75
2023/09/22 04:11:09;;;;;;;12.85;3.53;;;;;;;15.99;100.00;63653.53;5025728;28;20278;-76
2023/09/22 04:13:37;;;;;;;5.80;3.22;;;;;;;15.99;100.00;63650.97;5022255;28;20203;-75
2023/09/22 04:16:06;;;;;;;4.40;3.22;;;;;;;15.98;100.00;63649.41;5022343;28;20199;-74
2023/09/22 04:18:34;;;;;;;5.10;3.10;;;;;;;15.97;100.00;63651.47;5021976;28;20190;-75
2023/09/22 04:21:01;;;;;;;6.05;3.08;;;;;;;15.95;100.00;63646.28;5025451;28;20218;-75
2023/09/22 04:23:29;;;;;;;4.05;3.55;;;;;;;15.96;100.00;63647.84;5024185;28;20230;-75
2023/09/22 04:25:59;;;;;;;4.22;2.88;;;;;;;16.00;100.00;63657.16;5022035;28;20222;-76
2023/09/22 04:28:27;;;;;;;4.68;2.45;;;;;;;15.98;100.00;63654.53;5019389;28;20226;-74
2023/09/22 04:30:54;;;;;;;5.00;2.58;;;;;;;15.96;100.00;63652.97;5020836;28;20218;-75
2023/09/22 04:33:23;;;;;;;6.03;4.00;;;;;;;16.01;100.00;63658.19;5021846;28;20191;-75
2023/09/22 04:35:50;;;;;;;7.88;3.25;;;;;;;16.02;100.00;63661.28;5031475;28;20218;-75
2023/09/22 04:38:18;;;;;;;6.82;2.72;;;;;;;16.00;100.00;63651.47;5040131;28;20218;-74
2023/09/22 04:40:45;;;;;;;10.57;3.53;;;;;;;16.05;100.00;63659.25;5021405;28;20234;-74
2023/09/22 04:43:12;;;;;;;5.45;3.70;;;;;;;16.10;100.00;63664.97;5022028;28;20216;-76
2023/09/22 04:45:40;;;;;;;7.00;3.63;;;;;;;16.17;100.00;63674.81;5034309;28;20236;-76
2023/09/22 04:48:08;;;;;;;3.38;3.17;;;;;;;16.23;100.00;63677.97;5034179;28;20257;-75
2023/09/22 04:50:36;;;;;;;13.80;3.72;;;;;;;16.25;100.00;63679.53;5023367;28;20417;-77
2023/09/22 04:53:04;;;;;;;7.82;4.88;;;;;;;16.32;100.00;63682.22;5024388;28;20233;-76
2023/09/22 04:55:34;;;;;;;6.88;3.65;;;;;;;16.44;100.00;63691.59;5025480;28;20293;-76
2023/09/22 04:58:01;;;;;;;7.05;3.17;;;;;;;16.43;100.00;63696.22;5020601;28;20194;-75
2023/09/22 05:00:28;;;;;;;9.30;3.63;;;;;;;16.51;100.00;63709.19;5011523;28;20219;-75
2023/09/22 05:02:55;;;;;;;11.80;3.58;;;;;;;16.55;100.00;63705.63;5024882;28;20234;-76
2023/09/22 05:05:22;;;;;;;7.07;4.13;;;;;;;16.63;100.00;63714.47;5024207;28;20237;-75
2023/09/22 05:07:53;;;;;;;8.82;4.20;;;;;;;16.75;100.00;63731.59;5024130;28;20288;-75
2023/09/22 05:10:21;;;;;;;8.38;3.85;;;;;;;16.83;100.00;63734.75;5022391;28;20530;-76
2023/09/22 05:12:50;;;;;;;8.52;3.67;;;;;;;16.89;100.00;63746.69;5037862;28;20280;-76
2023/09/22 05:15:17;;;;;;;9.00;4.28;;;;;;;17.03;100.00;63758.66;5034133;28;20230;-75
2023/09/22 05:17:44;;;;;;;10.25;3.53;;;;;;;17.18;100.00;63776.88;5017886;28;20209;-75
2023/09/22 05:20:15;;;;;;;7.50;3.10;;;;;;;17.30;100.00;63791.94;5024753;28;20410;-74
2023/09/22 05:22:42;;;;;;;6.13;3.25;;;;;;;17.46;100.00;63805.50;5038839;28;20236;-74
2023/09/22 05:25:12;;;;;;;5.90;3.88;;;;;;;17.59;100.00;63816.47;5024272;28;20217;-75
2023/09/22 05:27:42;;;;;;;3.42;3.05;;;;;;;17.76;100.00;63831.06;5019302;28;20245;-75
2023/09/22 05:30:10;;;;;;;6.45;3.60;;;;;;;17.82;100.00;63843.00;5020394;28;20355;-75
2023/09/22 05:32:38;;;;;;;5.68;3.58;;;;;;;17.98;100.00;63857.06;5023334;28;20213;-76
2023/09/22 05:35:06;;;;;;;5.75;3.75;;;;;;;18.13;100.00;63875.28;5022393;28;20228;-76
2023/09/22 05:37:34;;;;;;;7.25;3.80;;;;;;;18.31;100.00;63888.34;5020930;28;20214;-76
2023/09/22 05:40:05;;;;;;;11.82;4.13;;;;;;;18.45;100.00;63910.19;5019870;28;20308;-76
2023/09/22 05:42:33;;;;;;;5.65;3.55;;;;;;;18.60;100.00;63923.25;5020132;28;20506;-75
2023/09/22 05:45:00;;;;;;;11.20;4.00;;;;;;;18.63;100.00;63926.88;5021301;28;20383;-77
2023/09/22 05:47:27;;;;;;;8.05;3.97;;;;;;;18.79;100.00;63943.56;5022136;28;20237;-77
2023/09/22 05:49:54;;;;;;;4.22;3.85;;;;;;;18.80;100.00;63941.50;5022683;28;20533;-76
2023/09/22 05:52:22;;;;;;;7.65;3.80;;;;;;;18.75;100.00;63936.28;5021882;28;20214;-76
2023/09/22 05:54:49;;;;;;;10.43;4.28;;;;;;;18.69;100.00;63930.56;5020371;28;20224;-75
2023/09/22 05:57:16;;;;;;;9.93;4.22;;;;;;;18.76;100.00;63939.94;5023461;28;20519;-75
2023/09/22 05:59:46;;;;;;;9.73;4.63;;;;;;;18.91;100.00;63958.66;5022104;28;20256;-77
2023/09/22 06:02:13;;;;;;;8.23;3.78;;;;;;;19.03;100.00;63971.16;5017892;28;20205;-77
2023/09/22 06:04:40;;;;;;;5.15;3.70;;;;;;;19.14;100.00;63980.03;5022974;28;20460;-76
2023/09/22 06:07:12;;;;;;;7.15;4.32;;;;;;;19.18;100.00;63981.66;5023567;28;20194;-76
2023/09/22 06:09:39;;;;;;;8.77;4.25;;;;;;;19.24;100.00;63984.81;5027848;28;20213;-77
2023/09/22 06:12:07;;;;;;;4.60;3.80;;;;;;;19.30;100.00;63996.75;5020611;28;20205;-76
2023/09/22 06:14:33;;;;;;;3.97;3.55;;;;;;;19.36;100.00;63999.91;5022976;28;20256;-76
2023/09/22 06:17:02;;;;;;;5.03;3.65;;;;;;;19.36;100.00;63999.91;5021586;28;20204;-75
2023/09/22 06:19:29;;;;;;;8.15;3.22;;;;;;;19.40;100.00;64007.19;5023298;28;20563;-78
2023/09/22 06:21:56;;;;;;;11.10;3.80;;;;;;;19.53;100.00;64025.38;5022815;28;20514;-75
2023/09/22 06:24:23;;;;;;;11.77;3.83;;;;;;;19.60;100.00;64029.59;5026799;28;20364;-74
2023/09/22 06:26:50;;;;;;;14.65;4.40;;;;;;;19.55;100.00;64019.72;5029792;28;20198;-76
2023/09/22 06:29:18;;;;;;;13.48;5.38;;;;;;;19.37;100.00;64003.53;5023535;28;20428;-76
2023/09/22 06:31:45;;;;;;;8.00;4.75;;;;;;;19.36;100.00;64000.41;5026566;28;20459;-78
2023/09/22 06:34:13;;;;;;;9.18;5.32;;;;;;;19.32;100.00;63993.16;5026953;28;20230;-76
2023/09/22 06:36:40;;;;;;;6.80;4.72;;;;;;;19.34;100.00;64000.41;5027126;28;20230;-75
2023/09/22 06:39:08;;;;;;;10.60;5.43;;;;;;;19.34;100.00;64003.53;5021866;28;20233;-76
2023/09/22 06:41:36;;;;;;;7.78;4.72;;;;;;;19.46;100.00;64010.88;5027382;28;20209;-76
2023/09/22 06:44:06;;;;;;;8.20;5.60;;;;;;;19.66;100.00;64031.19;5026807;28;20253;-75
2023/09/22 06:46:35;;;;;;;12.52;6.28;;;;;;;19.76;100.00;64038.53;5026271;28;20277;-77
2023/09/22 06:49:05;;;;;;;7.85;5.25;;;;;;;19.87;100.00;64055.69;5024695;28;20252;-77
2023/09/22 06:51:33;;;;;;;10.98;6.80;;;;;;;19.93;100.00;64056.75;5027050;28;20547;-74
2023/09/22 06:54:00;;;;;;;14.05;6.05;;;;;;;20.01;100.00;64070.28;5027967;28;20495;-76
2023/09/22 06:56:27;;;;;;;9.48;5.80;;;;;;;20.10;100.00;64079.16;5024063;28;20202;-75
2023/09/22 06:58:54;;;;;;;12.00;6.80;;;;;;;20.13;100.00;64080.22;5027021;28;20292;-76
2023/09/22 07:01:21;;;;;;;8.48;6.13;;;;;;;20.17;100.00;64092.16;5028218;28;20821;-78
2023/09/22 07:03:49;;;;;;;10.95;6.93;;;;;;;20.15;100.00;64087.50;5028471;28;20209;-78
2023/09/22 07:06:18;;;;;;;9.07;6.95;;;;;;;20.26;100.00;64093.81;5025991;28;20198;-76
2023/09/22 07:08:48;;;;;;;12.15;6.78;;;;;;;20.42;100.00;64118.28;5028704;28;20230;-79
2023/09/22 07:11:18;;;;;;;12.13;6.60;;;;;;;20.31;100.00;64099.03;5044410;28;20216;-77
2023/09/22 07:13:45;;;;;;;9.93;6.80;;;;;;;20.17;100.00;64081.31;5040407;28;20193;-78
2023/09/22 07:16:12;;;;;;;17.17;7.22;;;;;;;20.40;100.00;64110.47;5022730;28;20261;-78
2023/09/22 07:18:39;;;;;;;13.77;6.03;;;;;;;20.41;100.00;64114.66;5030322;28;20206;-76
2023/09/22 07:21:08;;;;;;;12.73;6.53;;;;;;;20.45;100.00;64118.81;5026682;28;20281;-77
2023/09/22 07:23:35;;;;;;;10.48;6.18;;;;;;;20.58;100.00;64132.41;5019795;28;20605;-76
2023/09/22 07:26:05;;;;;;;12.95;7.07;;;;;;;20.71;100.00;64139.75;5025766;28;20273;-78
2023/09/22 07:28:34;;;;;;;14.07;6.85;;;;;;;20.85;100.00;64154.34;5021722;28;20233;-77
2023/09/22 07:31:00;;;;;;;10.60;6.53;;;;;;;20.86;100.00;64155.94;5030417;28;20198;-77
2023/09/22 07:33:30;;;;;;;15.23;7.40;;;;;;;20.84;100.00;64159.00;5023768;28;20206;-77
2023/09/22 07:35:58;;;;;;;10.70;6.97;;;;;;;20.82;100.00;64149.16;5034220;28;20201;-76
2023/09/22 07:38:26;;;;;;;12.50;7.15;;;;;;;20.87;100.00;64162.13;5046756;28;20403;-77
2023/09/22 07:40:53;;;;;;;14.70;8.27;;;;;;;20.93;100.00;64165.28;5038989;28;20281;-78
2023/09/22 07:43:28;;;;;;;18.83;8.13;;;;;;;20.99;100.00;64169.50;5031775;28;20303;-77
2023/09/22 07:45:55;;;;;;;12.45;6.90;;;;;;;21.11;100.00;64182.03;5036024;28;20207;-78
2023/09/22 07:48:22;;;;;;;11.32;7.28;;;;;;;21.15;100.00;64188.28;5027675;28;20233;-77
2023/09/22 07:50:50;;;;;;;10.55;7.50;;;;;;;21.12;100.00;64179.97;5025671;28;20225;-77
2023/09/22 07:53:19;;;;;;;13.70;7.03;;;;;;;21.28;100.00;64199.25;5031924;28;20229;-77
2023/09/22 07:55:47;;;;;;;9.20;6.88;;;;;;;21.13;100.00;64181.00;5014024;28;20222;-77
2023/09/22 07:58:14;;;;;;;10.70;6.13;;;;;;;21.26;100.00;64199.78;5030095;28;20204;-78
2023/09/22 08:00:46;;;;;;;8.05;5.38;;;;;;;21.34;100.00;64211.25;5034915;28;20218;-78
2023/09/22 08:03:14;;;;;;;12.25;5.55;;;;;;;21.33;100.00;64210.19;5028870;28;20267;-78
2023/09/22 08:05:42;;;;;;;10.20;5.50;;;;;;;21.53;100.00;64233.69;5030165;28;20225;-79
2023/09/22 08:08:10;;;;;;;13.63;5.75;;;;;;;21.64;100.00;64236.88;5026577;28;20206;-77
2023/09/22 08:10:38;;;;;;;16.95;6.18;;;;;;;21.62;100.00;64239.97;5015424;28;20245;-76
2023/09/22 08:13:07;;;;;;;14.35;8.10;;;;;;;21.67;100.00;64245.72;5027687;28;20205;-77
2023/09/22 08:15:34;;;;;;;13.57;6.15;;;;;;;21.70;99.08;64248.84;5029203;28;20547;-77
2023/09/22 08:18:05;;;;;;;6.07;5.47;;;;;;;21.68;99.05;64243.66;5024619;28;20195;-76
2023/09/22 08:20:33;;;;;;;9.07;5.85;;;;;;;21.75;100.00;64248.38;5037251;28;20234;-79
2023/09/22 08:23:00;;;;;;;11.60;5.30;;;;;;;21.91;99.95;64264.59;5045582;28;20205;-77
2023/09/22 08:25:27;;;;;;;8.88;6.07;;;;;;;22.01;100.00;64277.63;5029380;28;20248;-78
2023/09/22 08:27:56;;;;;;;11.80;6.30;;;;;;;22.20;96.68;64295.41;5027580;28;20489;-76
2023/09/22 08:30:24;;;;;;;8.75;5.85;;;;;;;22.18;97.59;64298.50;5031718;28;20291;-77
2023/09/22 08:32:51;;;;;;;13.13;5.50;;;;;;;22.36;94.17;64316.81;5028253;28;20221;-78
2023/09/22 08:35:20;;;;;;;13.27;5.88;;;;;;;22.38;94.12;64316.31;5028171;28;20240;-78
2023/09/22 08:37:49;;;;;;;11.45;5.93;;;;;;;22.61;91.51;64338.28;5025702;28;20257;-77
2023/09/22 08:40:17;;;;;;;9.63;6.18;;;;;;;22.63;88.42;64342.97;5027957;28;20244;-78
2023/09/22 08:42:45;;;;;;;13.32;6.90;;;;;;;22.83;93.65;64360.78;5034029;28;20202;-77
2023/09/22 08:45:13;;;;;;;12.40;5.78;;;;;;;22.89;89.45;64372.75;5019987;28;20226;-79
2023/09/22 08:47:45;;;;;;;6.50;4.68;;;;;;;22.96;86.66;64371.25;5020889;28;20209;-76
2023/09/22 08:50:13;;;;;;;6.47;5.45;;;;;;;23.12;88.41;64390.56;5027446;28;20519;-79
2023/09/22 08:52:43;;;;;;;12.13;6.13;;;;;;;23.23;87.44;64402.59;5027661;28;20198;-77
2023/09/22 08:55:13;;;;;;;7.13;5.10;;;;;;;23.33;84.79;64417.75;5026267;28;20233;-77
2023/09/22 08:57:44;;;;;;;10.55;5.53;;;;;;;23.45;85.17;64425.13;5028374;28;20202;-78
2023/09/22 09:00:18;;;;;;;9.77;5.38;;;;;;;23.61;81.93;64444.97;5029607;28;20288;-77
2023/09/22 09:02:46;;;;;;;5.35;4.85;;;;;;;23.55;81.13;64436.09;5026297;28;20229;-78
2023/09/22 09:05:20;;;;;;;12.10;5.18;;;;;;;23.65;76.71;64448.63;5015656;28;20224;-76
2023/09/22 09:07:50;;;;;;;9.20;5.40;;;;;;;23.43;78.07;64425.63;5028130;28;20205;-78
2023/09/22 09:10:31;;;;;;;12.98;6.32;;;;;;;23.52;78.11;64443.34;5026325;28;20233;-79
2023/09/22 09:13:02;;;;;;;12.07;5.97;;;;;;;23.73;79.55;64457.00;5015881;28;20230;-78
2023/09/22 09:15:30;;;;;;;8.40;5.32;;;;;;;23.86;78.84;64468.53;5024495;28;20233;-79
2023/09/22 09:18:05;;;;;;;12.07;5.28;;;;;;;24.08;76.89;64491.06;5028003;28;20217;-78
2023/09/22 09:20:33;;;;;;;9.95;5.57;;;;;;;24.19;75.63;64507.25;5027689;28;20228;-78
2023/09/22 09:23:12;;;;;;;8.32;5.28;;;;;;;24.38;73.66;64527.66;5027715;28;20202;-77
2023/09/22 09:25:42;;;;;;;6.82;4.55;;;;;;;24.23;73.31;64508.84;5028107;28;20237;-77
2023/09/22 09:28:10;;;;;;;13.13;5.25;;;;;;;24.36;70.55;64519.84;5029921;28;20237;-77
2023/09/22 09:30:37;;;;;;;13.63;4.97;;;;;;;24.19;70.06;64505.19;5027052;28;20296;-77
2023/09/22 09:33:12;;;;;;;11.05;4.80;;;;;;;24.24;67.54;64510.41;5029705;28;20206;-77
2023/09/22 09:35:41;;;;;;;8.75;5.30;;;;;;;24.23;69.44;64509.34;5037035;28;20248;-78
2023/09/22 09:38:09;;;;;;;18.83;5.80;;;;;;;24.36;70.30;64522.44;5045014;28;20205;-79
2023/09/22 09:40:38;;;;;;;8.65;4.10;;;;;;;24.55;67.16;64544.94;5024641;28;20234;-79
2023/09/22 09:43:13;;;;;;;10.38;4.28;;;;;;;24.56;64.96;64540.78;5032135;28;20284;-75
2023/09/22 09:45:45;;;;;;;7.60;4.40;;;;;;;24.56;67.41;64538.69;5045972;28;20426;-80
2023/09/22 09:48:16;;;;;;;10.82;5.13;;;;;;;24.73;65.24;64563.81;5046640;28;20214;-80
2023/09/22 09:50:49;;;;;;;8.40;4.57;;;;;;;24.73;63.51;64558.59;5028800;28;20229;-80
2023/09/22 09:53:27;;;;;;;10.13;5.30;;;;;;;24.79;65.93;64565.41;5033851;28;20288;-79
2023/09/22 09:55:58;;;;;;;10.77;5.13;;;;;;;24.85;64.90;64571.19;5053113;28;20234;-78
2023/09/22 09:58:28;;;;;;;10.50;5.10;;;;;;;24.68;63.91;64555.94;5025995;28;20203;-78
2023/09/22 10:00:56;;;;;;;7.72;4.75;;;;;;;24.70;66.27;64558.59;5036676;28;20378;-81
2023/09/22 10:03:25;;;;;;;8.27;5.38;;;;;;;24.81;64.84;64572.19;5033808;28;20511;-80
2023/09/22 10:05:54;;;;;;;5.75;4.20;;;;;;;24.79;65.29;64564.88;5032024;28;20225;-79
2023/09/22 10:08:25;;;;;;;10.52;4.82;;;;;;;24.91;64.75;64580.59;5032679;28;20225;-78
2023/09/22 10:10:54;;;;;;;7.97;4.45;;;;;;;24.88;64.39;64574.31;5033321;28;20293;-78
2023/09/22 10:13:22;;;;;;;7.35;4.78;;;;;;;24.86;65.21;64577.94;5040591;28;20540;-78
2023/09/22 10:15:58;;;;;;;7.00;4.72;;;;;;;24.93;65.37;64576.94;5040479;28;20226;-79
2023/09/22 10:18:48;;;;;;;9.30;4.30;;;;;;;25.05;65.44;64599.94;5026802;28;20381;-79
2023/09/22 10:21:46;;;;;;;9.15;4.72;;;;;;;25.13;64.74;64600.47;5033334;28;20209;-80
